createdAt,value
2022-08-31T00:00:12.649Z,14.43
2022-08-31T00:02:58.781Z,14.42
2022-08-31T00:05:26.012Z,14.37
2022-08-31T00:07:53.381Z,14.38
2022-08-31T00:10:32.273Z,14.41
2022-08-31T00:13:06.962Z,14.47
2022-08-31T00:15:35.429Z,14.44
2022-08-31T00:18:03.687Z,14.44
2022-08-31T00:20:33.379Z,14.46
2022-08-31T00:23:04.016Z,14.41
2022-08-31T00:25:32.037Z,14.37
2022-08-31T00:27:59.500Z,14.31
2022-08-31T00:30:26.763Z,14.29
2022-08-31T00:32:54.001Z,14.29
2022-08-31T00:35:24.492Z,14.30
2022-08-31T00:37:51.690Z,14.27
2022-08-31T00:40:19.204Z,14.14
2022-08-31T00:42:46.848Z,14.06
2022-08-31T00:45:14.156Z,14.03
2022-08-31T00:47:41.504Z,13.97
2022-08-31T00:50:13.300Z,13.93
2022-08-31T00:52:44.552Z,13.88
2022-08-31T00:55:21.101Z,13.86
2022-08-31T00:57:51.476Z,13.78
2022-08-31T01:00:24.601Z,13.77
2022-08-31T01:02:52.056Z,13.67
2022-08-31T01:05:20.043Z,13.61
2022-08-31T01:07:48.197Z,13.57
2022-08-31T01:10:17.463Z,13.48
2022-08-31T01:12:47.847Z,13.47
2022-08-31T01:15:18.522Z,13.43
2022-08-31T01:17:49.584Z,13.45
2022-08-31T01:20:48.917Z,13.41
2022-08-31T01:23:28.946Z,13.36
2022-08-31T01:25:58.468Z,13.30
2022-08-31T01:28:26.571Z,13.30
2022-08-31T01:31:29.000Z,13.38
2022-08-31T01:33:57.443Z,13.48
2022-08-31T01:36:26.261Z,13.46
2022-08-31T01:38:53.569Z,13.46
2022-08-31T01:41:22.340Z,13.37
2022-08-31T01:43:50.570Z,13.32
2022-08-31T01:46:17.790Z,13.37
2022-08-31T01:48:46.271Z,13.34
2022-08-31T01:51:16.503Z,13.31
2022-08-31T01:53:48.355Z,13.32
2022-08-31T01:56:26.019Z,13.37
2022-08-31T01:58:53.943Z,13.44
2022-08-31T02:01:40.558Z,13.34
2022-08-31T02:04:11.010Z,13.26
2022-08-31T02:06:45.080Z,13.10
2022-08-31T02:09:12.494Z,12.96
2022-08-31T02:11:39.821Z,12.89
2022-08-31T02:14:08.205Z,12.80
2022-08-31T02:16:37.114Z,12.80
2022-08-31T02:19:05.780Z,12.79
2022-08-31T02:21:36.699Z,12.81
2022-08-31T02:24:05.674Z,12.80
2022-08-31T02:26:33.057Z,12.90
2022-08-31T02:29:00.601Z,12.91
2022-08-31T02:31:28.234Z,12.86
2022-08-31T02:34:00.545Z,12.85
2022-08-31T02:36:27.806Z,12.84
2022-08-31T02:38:55.851Z,12.85
2022-08-31T02:41:23.325Z,12.86
2022-08-31T02:43:50.495Z,12.88
2022-08-31T02:46:18.674Z,12.91
2022-08-31T02:48:55.538Z,12.92
2022-08-31T02:51:22.827Z,12.92
2022-08-31T02:53:50.949Z,13.02
2022-08-31T02:56:18.498Z,13.14
2022-08-31T02:58:46.145Z,13.13
2022-08-31T03:01:13.398Z,13.18
2022-08-31T03:03:46.228Z,13.18
2022-08-31T03:06:17.744Z,13.29
2022-08-31T03:08:45.605Z,13.28
2022-08-31T03:11:14.547Z,13.18
2022-08-31T03:13:42.157Z,13.18
2022-08-31T03:16:13.605Z,13.17
2022-08-31T03:18:41.427Z,13.18
2022-08-31T03:21:09.668Z,13.22
2022-08-31T03:23:37.414Z,13.12
2022-08-31T03:26:05.834Z,12.92
2022-08-31T03:28:34.891Z,12.80
2022-08-31T03:31:24.440Z,12.73
2022-08-31T03:33:52.725Z,12.72
2022-08-31T03:36:19.956Z,12.63
2022-08-31T03:38:47.542Z,12.56
2022-08-31T03:41:21.761Z,12.52
2022-08-31T03:43:49.344Z,12.53
2022-08-31T03:46:18.371Z,12.42
2022-08-31T03:48:47.548Z,12.37
2022-08-31T03:51:16.908Z,12.35
2022-08-31T03:53:44.550Z,12.35
2022-08-31T03:56:17.647Z,12.31
2022-08-31T03:58:45.002Z,12.29
2022-08-31T04:01:25.233Z,12.31
2022-08-31T04:04:24.279Z,12.33
2022-08-31T04:07:26.419Z,12.33
2022-08-31T04:10:32.086Z,12.40
2022-08-31T04:13:18.034Z,12.43
2022-08-31T04:16:13.757Z,12.42
2022-08-31T04:18:47.647Z,12.53
2022-08-31T04:21:25.324Z,12.58
2022-08-31T04:23:53.904Z,12.58
2022-08-31T04:26:24.625Z,12.49
2022-08-31T04:28:52.742Z,12.48
2022-08-31T04:31:21.448Z,12.57
2022-08-31T04:33:50.053Z,12.47
2022-08-31T04:36:21.289Z,12.45
2022-08-31T04:38:54.539Z,12.38
2022-08-31T04:41:23.829Z,12.34
2022-08-31T04:43:55.115Z,12.32
2022-08-31T04:46:23.578Z,12.35
2022-08-31T04:48:51.771Z,12.45
2022-08-31T04:51:21.799Z,12.57
2022-08-31T04:53:50.801Z,12.59
2022-08-31T04:56:21.861Z,12.64
2022-08-31T04:58:52.724Z,12.62
2022-08-31T05:01:23.778Z,12.67
2022-08-31T05:04:24.108Z,12.64
2022-08-31T05:06:51.942Z,12.62
2022-08-31T05:09:22.589Z,12.65
2022-08-31T05:11:52.773Z,12.69
2022-08-31T05:14:22.115Z,12.74
2022-08-31T05:16:56.154Z,12.75
2022-08-31T05:19:23.605Z,12.84
2022-08-31T05:21:50.815Z,12.92
2022-08-31T05:24:22.679Z,12.97
2022-08-31T05:26:53.587Z,13.02
2022-08-31T05:29:24.449Z,13.07
2022-08-31T05:31:59.440Z,13.12
2022-08-31T05:34:27.039Z,13.23
2022-08-31T05:36:56.587Z,13.28
2022-08-31T05:39:26.063Z,13.35
2022-08-31T05:41:54.313Z,13.40
2022-08-31T05:44:21.494Z,13.46
2022-08-31T05:47:00.901Z,13.56
2022-08-31T05:49:32.264Z,13.68
2022-08-31T05:52:05.389Z,13.75
2022-08-31T05:54:34.830Z,13.89
2022-08-31T05:57:02.701Z,14.00
2022-08-31T05:59:31.433Z,13.97
2022-08-31T06:01:59.575Z,14.07
2022-08-31T06:04:28.924Z,14.12
2022-08-31T06:06:57.381Z,14.21
2022-08-31T06:09:28.485Z,14.23
2022-08-31T06:11:56.929Z,14.12
2022-08-31T06:14:24.094Z,14.19
2022-08-31T06:16:55.531Z,14.25
2022-08-31T06:19:24.087Z,14.40
2022-08-31T06:21:52.556Z,14.37
2022-08-31T06:24:27.082Z,14.41
2022-08-31T06:26:58.931Z,14.33
2022-08-31T06:29:33.082Z,14.29
2022-08-31T06:32:08.137Z,14.45
2022-08-31T06:34:39.792Z,14.51
2022-08-31T06:37:10.855Z,14.70
2022-08-31T06:40:05.614Z,14.74
2022-08-31T06:42:53.105Z,14.75
2022-08-31T06:45:33.340Z,14.79
2022-08-31T06:48:23.646Z,14.85
2022-08-31T06:51:00.148Z,14.99
2022-08-31T06:53:28.098Z,15.10
2022-08-31T06:56:25.902Z,15.11
2022-08-31T06:59:15.999Z,15.09
2022-08-31T07:02:02.888Z,15.19
2022-08-31T07:04:38.688Z,15.23
2022-08-31T07:07:11.317Z,15.15
2022-08-31T07:09:41.188Z,15.21
2022-08-31T07:12:09.000Z,15.22
2022-08-31T07:14:36.377Z,15.29
2022-08-31T07:17:04.364Z,15.29
2022-08-31T07:19:33.395Z,15.43
2022-08-31T07:22:06.371Z,15.53
2022-08-31T07:24:35.262Z,15.61
2022-08-31T07:27:10.010Z,15.65
2022-08-31T07:29:43.332Z,15.75
2022-08-31T07:32:17.521Z,15.81
2022-08-31T07:34:45.286Z,15.96
2022-08-31T07:37:39.555Z,16.14
2022-08-31T07:40:27.404Z,16.20
2022-08-31T07:42:55.270Z,16.28
2022-08-31T07:45:25.705Z,16.29
2022-08-31T07:47:56.309Z,16.30
2022-08-31T07:50:27.502Z,16.44
2022-08-31T07:53:18.178Z,16.63
2022-08-31T07:55:55.585Z,16.62
2022-08-31T07:58:34.972Z,16.60
2022-08-31T08:01:04.259Z,16.51
2022-08-31T08:03:31.549Z,16.51
2022-08-31T08:06:18.923Z,16.67
2022-08-31T08:09:22.429Z,16.59
2022-08-31T08:12:08.666Z,16.56
2022-08-31T08:14:44.502Z,16.60
2022-08-31T08:17:22.084Z,16.75
2022-08-31T08:19:54.462Z,16.85
2022-08-31T08:22:48.316Z,16.87
2022-08-31T08:25:28.639Z,17.00
2022-08-31T08:28:38.643Z,17.09
2022-08-31T08:31:13.402Z,17.27
2022-08-31T08:33:41.294Z,17.44
2022-08-31T08:36:08.816Z,17.55
2022-08-31T08:38:40.138Z,17.61
2022-08-31T08:41:14.247Z,17.66
2022-08-31T08:43:50.084Z,17.64
2022-08-31T08:46:34.915Z,17.67
2022-08-31T08:49:24.792Z,17.72
2022-08-31T08:52:11.062Z,17.71
2022-08-31T08:54:42.963Z,17.70
2022-08-31T08:57:15.431Z,17.71
2022-08-31T08:59:46.934Z,17.60
2022-08-31T09:02:22.048Z,17.69
2022-08-31T09:05:00.772Z,17.82
2022-08-31T09:08:23.421Z,17.93
2022-08-31T09:11:18.551Z,17.90
2022-08-31T09:13:50.152Z,17.94
2022-08-31T09:16:36.592Z,18.00
2022-08-31T09:19:13.031Z,17.90
2022-08-31T09:21:48.362Z,17.92
2022-08-31T09:24:22.596Z,17.87
2022-08-31T09:27:18.784Z,17.88
2022-08-31T09:29:53.013Z,17.95
2022-08-31T09:32:27.352Z,18.03
2022-08-31T09:35:02.295Z,18.05
2022-08-31T09:37:46.671Z,18.20
2022-08-31T09:40:16.620Z,18.30
2022-08-31T09:43:05.996Z,18.50
2022-08-31T09:45:41.846Z,18.63
2022-08-31T09:48:09.988Z,18.69
2022-08-31T09:50:45.309Z,18.79
2022-08-31T09:53:33.382Z,18.97
2022-08-31T09:56:15.983Z,19.04
2022-08-31T09:58:54.799Z,18.98
2022-08-31T10:01:44.438Z,19.18
2022-08-31T10:04:25.025Z,19.23
2022-08-31T10:07:14.179Z,19.47
2022-08-31T10:09:47.132Z,19.49
2022-08-31T10:12:24.704Z,19.51
2022-08-31T10:14:56.920Z,19.57
2022-08-31T10:17:36.052Z,19.65
2022-08-31T10:20:10.734Z,19.33
2022-08-31T10:22:43.129Z,19.18
2022-08-31T10:25:27.048Z,19.21
2022-08-31T10:28:03.869Z,19.03
2022-08-31T10:31:00.163Z,19.07
2022-08-31T10:33:54.893Z,19.11
2022-08-31T10:36:25.321Z,19.24
2022-08-31T10:38:55.154Z,19.24
2022-08-31T10:41:27.867Z,19.27
2022-08-31T10:44:32.575Z,19.31
2022-08-31T10:47:05.845Z,19.35
2022-08-31T10:49:35.430Z,19.37
2022-08-31T10:52:11.839Z,19.43
2022-08-31T10:55:13.270Z,19.49
2022-08-31T10:57:58.686Z,19.55
2022-08-31T11:00:48.907Z,19.63
2022-08-31T11:03:40.632Z,19.93
2022-08-31T11:06:19.892Z,19.86
2022-08-31T11:09:02.559Z,19.76
2022-08-31T11:11:45.782Z,19.92
2022-08-31T11:14:45.040Z,19.86
2022-08-31T11:17:42.571Z,19.81
2022-08-31T11:20:17.143Z,19.75
2022-08-31T11:23:09.305Z,19.57
2022-08-31T11:25:36.558Z,19.39
2022-08-31T11:28:10.983Z,19.39
2022-08-31T11:30:50.525Z,19.36
2022-08-31T11:33:28.123Z,19.36
2022-08-31T11:36:06.053Z,19.39
2022-08-31T11:39:03.605Z,19.48
2022-08-31T11:41:48.072Z,19.48
2022-08-31T11:44:30.463Z,19.62
2022-08-31T11:47:27.086Z,19.63
2022-08-31T11:49:57.231Z,19.73
2022-08-31T11:52:29.629Z,19.79
2022-08-31T11:55:01.559Z,19.90
2022-08-31T11:57:37.058Z,19.82
2022-08-31T12:00:19.616Z,19.93
2022-08-31T12:03:02.771Z,19.99
2022-08-31T12:05:54.283Z,19.98
2022-08-31T12:08:23.189Z,19.90
2022-08-31T12:11:01.688Z,19.89
2022-08-31T12:13:49.007Z,19.90
2022-08-31T12:16:30.169Z,19.76
2022-08-31T12:19:35.425Z,19.54
2022-08-31T12:22:34.388Z,19.45
2022-08-31T12:25:20.320Z,19.33
2022-08-31T12:28:04.816Z,19.45
2022-08-31T12:30:32.178Z,19.51
2022-08-31T12:33:11.265Z,19.50
2022-08-31T12:35:39.058Z,19.39
2022-08-31T12:38:10.660Z,19.51
2022-08-31T12:40:56.852Z,19.55
2022-08-31T12:43:28.311Z,19.75
2022-08-31T12:46:03.115Z,19.89
2022-08-31T12:48:52.192Z,19.90
2022-08-31T12:51:37.876Z,19.85
2022-08-31T12:54:10.851Z,19.81
2022-08-31T12:56:59.567Z,19.73
2022-08-31T12:59:59.993Z,19.44
2022-08-31T13:02:34.929Z,19.14
2022-08-31T13:05:03.465Z,18.97
2022-08-31T13:07:36.252Z,18.66
2022-08-31T13:10:05.904Z,18.70
2022-08-31T13:12:33.486Z,18.70
2022-08-31T13:15:00.692Z,18.63
2022-08-31T13:17:34.946Z,18.63
2022-08-31T13:20:02.963Z,18.65
2022-08-31T13:22:41.749Z,18.63
2022-08-31T13:25:37.903Z,18.74
2022-08-31T13:28:23.276Z,18.85
2022-08-31T13:31:03.685Z,18.84
2022-08-31T13:33:34.970Z,18.95
2022-08-31T13:36:32.119Z,19.01
2022-08-31T13:39:04.279Z,19.00
2022-08-31T13:41:36.849Z,19.03
2022-08-31T13:44:09.797Z,19.00
2022-08-31T13:46:49.077Z,19.03
2022-08-31T13:49:32.399Z,19.09
2022-08-31T13:52:00.234Z,19.15
2022-08-31T13:54:32.990Z,19.19
2022-08-31T13:57:25.894Z,19.19
2022-08-31T13:59:53.288Z,19.21
2022-08-31T14:02:22.070Z,19.17
2022-08-31T14:04:59.904Z,19.18
2022-08-31T14:07:33.093Z,19.26
2022-08-31T14:10:04.126Z,19.26
2022-08-31T14:12:46.031Z,19.19
2022-08-31T14:15:15.277Z,19.22
2022-08-31T14:17:43.157Z,19.27
2022-08-31T14:20:33.895Z,19.14
2022-08-31T14:23:24.606Z,19.19
2022-08-31T14:25:53.564Z,19.19
2022-08-31T14:28:39.643Z,19.26
2022-08-31T14:31:22.923Z,19.23
2022-08-31T14:34:22.455Z,19.24
2022-08-31T14:37:04.187Z,19.24
2022-08-31T14:39:34.404Z,19.25
2022-08-31T14:42:17.156Z,19.31
2022-08-31T14:44:59.410Z,19.40
2022-08-31T14:47:29.039Z,19.30
2022-08-31T14:50:05.398Z,19.34
2022-08-31T14:52:39.135Z,19.31
2022-08-31T14:55:11.217Z,19.23
2022-08-31T14:58:06.495Z,19.27
2022-08-31T15:00:43.773Z,19.30
2022-08-31T15:03:12.013Z,19.31
2022-08-31T15:05:56.670Z,19.27
2022-08-31T15:08:38.457Z,19.31
2022-08-31T15:11:07.187Z,19.24
2022-08-31T15:13:39.198Z,19.22
2022-08-31T15:16:12.558Z,19.12
2022-08-31T15:18:44.677Z,18.97
2022-08-31T15:21:12.281Z,18.99
2022-08-31T15:23:42.224Z,18.95
2022-08-31T15:26:12.368Z,18.91
2022-08-31T15:28:42.162Z,18.82
2022-08-31T15:31:28.523Z,18.78
2022-08-31T15:33:57.556Z,18.68
2022-08-31T15:36:25.109Z,18.70
2022-08-31T15:38:55.518Z,18.64
2022-08-31T15:41:24.100Z,18.67
2022-08-31T15:43:52.124Z,18.60
2022-08-31T15:46:40.418Z,18.53
2022-08-31T15:49:09.894Z,18.55
2022-08-31T15:51:49.154Z,18.54
2022-08-31T15:54:22.542Z,18.50
2022-08-31T15:56:51.361Z,18.43
2022-08-31T15:59:19.394Z,18.38
2022-08-31T16:01:46.840Z,18.43
2022-08-31T16:04:23.662Z,18.44
2022-08-31T16:06:51.946Z,18.48
2022-08-31T16:09:22.893Z,18.52
2022-08-31T16:11:51.995Z,18.53
2022-08-31T16:14:20.584Z,18.50
2022-08-31T16:17:19.888Z,18.45
2022-08-31T16:19:48.954Z,18.56
2022-08-31T16:22:19.265Z,18.51
2022-08-31T16:24:47.128Z,18.46
2022-08-31T16:27:17.222Z,18.38
2022-08-31T16:29:46.375Z,18.45
2022-08-31T16:32:13.811Z,18.40
2022-08-31T16:34:42.695Z,18.41
2022-08-31T16:37:10.521Z,18.33
2022-08-31T16:39:39.521Z,18.38
2022-08-31T16:42:08.587Z,18.38
2022-08-31T16:44:36.571Z,18.29
2022-08-31T16:47:06.783Z,18.30
2022-08-31T16:49:36.861Z,18.24
2022-08-31T16:52:07.357Z,18.22
2022-08-31T16:54:34.866Z,18.19
2022-08-31T16:57:02.058Z,18.06
2022-08-31T16:59:29.806Z,18.05
2022-08-31T17:01:56.995Z,18.00
2022-08-31T17:04:50.599Z,17.95
2022-08-31T17:07:15.120Z,17.88
2022-08-31T17:09:42.953Z,17.86
2022-08-31T17:12:14.374Z,17.87
2022-08-31T17:14:46.709Z,17.82
2022-08-31T17:17:17.639Z,17.76
2022-08-31T17:19:46.236Z,17.75
2022-08-31T17:22:21.538Z,17.70
2022-08-31T17:24:52.237Z,17.72
2022-08-31T17:27:21.083Z,17.66
2022-08-31T17:29:56.188Z,17.68
2022-08-31T17:32:26.346Z,17.66
2022-08-31T17:34:55.387Z,17.61
2022-08-31T17:37:32.973Z,17.56
2022-08-31T17:40:00.497Z,17.52
2022-08-31T17:42:28.160Z,17.53
2022-08-31T17:44:56.792Z,17.49
2022-08-31T17:47:25.557Z,17.46
2022-08-31T17:49:54.194Z,17.39
2022-08-31T17:52:21.955Z,17.35
2022-08-31T17:54:51.047Z,17.34
2022-08-31T17:57:25.198Z,17.30
2022-08-31T17:59:54.809Z,17.28
2022-08-31T18:02:27.692Z,17.24
2022-08-31T18:04:55.300Z,17.19
2022-08-31T18:07:22.647Z,17.15
2022-08-31T18:09:49.848Z,17.15
2022-08-31T18:12:21.847Z,17.12
2022-08-31T18:14:49.771Z,17.11
2022-08-31T18:17:17.245Z,17.15
2022-08-31T18:19:45.428Z,17.11
2022-08-31T18:22:15.647Z,17.07
2022-08-31T18:24:43.379Z,17.08
2022-08-31T18:27:15.489Z,17.07
2022-08-31T18:29:44.166Z,17.04
2022-08-31T18:32:12.089Z,17.03
2022-08-31T18:34:40.397Z,17.03
2022-08-31T18:37:09.352Z,17.00
2022-08-31T18:40:00.491Z,16.98
2022-08-31T18:42:47.365Z,16.96
2022-08-31T18:45:18.725Z,16.92
2022-08-31T18:48:20.848Z,16.90
2022-08-31T18:50:46.731Z,16.85
2022-08-31T18:53:27.438Z,16.88
2022-08-31T18:56:11.080Z,16.87
2022-08-31T18:58:39.033Z,16.85
2022-08-31T19:01:11.315Z,16.81
2022-08-31T19:03:39.680Z,16.84
2022-08-31T19:06:08.295Z,16.85
2022-08-31T19:08:36.505Z,16.81
2022-08-31T19:11:07.109Z,16.84
2022-08-31T19:13:34.460Z,16.79
2022-08-31T19:16:08.114Z,16.76
2022-08-31T19:18:44.127Z,16.75
2022-08-31T19:21:18.302Z,16.69
2022-08-31T19:23:47.001Z,16.70
2022-08-31T19:26:20.322Z,16.77
2022-08-31T19:28:49.666Z,16.72
2022-08-31T19:31:19.522Z,16.65
2022-08-31T19:33:48.158Z,16.55
2022-08-31T19:36:15.396Z,16.51
2022-08-31T19:38:44.076Z,16.47
2022-08-31T19:41:20.329Z,16.49
2022-08-31T19:43:54.825Z,16.48
2022-08-31T19:46:30.305Z,16.47
2022-08-31T19:48:59.853Z,16.44
2022-08-31T19:51:29.273Z,16.43
2022-08-31T19:53:57.413Z,16.43
2022-08-31T19:56:29.007Z,16.40
2022-08-31T19:58:58.678Z,16.42
2022-08-31T20:01:33.701Z,16.43
2022-08-31T20:04:04.223Z,16.39
2022-08-31T20:06:31.802Z,16.37
2022-08-31T20:08:59.566Z,16.38
2022-08-31T20:11:29.649Z,16.35
2022-08-31T20:14:01.115Z,16.30
2022-08-31T20:16:36.293Z,16.31
2022-08-31T20:19:04.880Z,16.26
2022-08-31T20:21:35.024Z,16.23
2022-08-31T20:24:06.964Z,16.17
2022-08-31T20:26:47.376Z,16.12
2022-08-31T20:29:20.614Z,16.07
2022-08-31T20:31:50.528Z,16.06
2022-08-31T20:34:19.403Z,16.04
2022-08-31T20:36:49.577Z,15.99
2022-08-31T20:39:19.889Z,16.00
2022-08-31T20:41:51.181Z,15.96
2022-08-31T20:44:21.326Z,15.94
2022-08-31T20:47:10.120Z,15.98
2022-08-31T20:49:41.143Z,16.01
2022-08-31T20:52:11.266Z,15.99
2022-08-31T20:54:39.019Z,16.00
2022-08-31T20:57:09.280Z,15.95
2022-08-31T20:59:36.960Z,15.89
2022-08-31T21:02:07.003Z,15.84
2022-08-31T21:04:38.246Z,15.92
2022-08-31T21:07:07.440Z,15.93
2022-08-31T21:09:34.934Z,15.87
2022-08-31T21:12:02.606Z,15.82
2022-08-31T21:14:31.031Z,15.81
2022-08-31T21:16:59.208Z,15.76
2022-08-31T21:19:26.482Z,15.68
2022-08-31T21:22:05.102Z,15.61
2022-08-31T21:24:34.016Z,15.54
2022-08-31T21:27:01.342Z,15.53
2022-08-31T21:29:31.332Z,15.60
2022-08-31T21:32:03.329Z,15.59
2022-08-31T21:34:31.083Z,15.50
2022-08-31T21:37:00.212Z,15.40
2022-08-31T21:39:27.622Z,15.40
2022-08-31T21:41:56.135Z,15.39
2022-08-31T21:44:24.407Z,15.40
2022-08-31T21:46:52.028Z,15.40
2022-08-31T21:49:19.633Z,15.33
2022-08-31T21:51:52.580Z,15.40
2022-08-31T21:54:27.187Z,15.39
2022-08-31T21:56:59.733Z,15.41
2022-08-31T21:59:30.250Z,15.30
2022-08-31T22:02:00.371Z,15.31
2022-08-31T22:04:29.357Z,15.39
2022-08-31T22:06:56.644Z,15.31
2022-08-31T22:09:24.668Z,15.23
2022-08-31T22:11:56.564Z,15.07
2022-08-31T22:14:31.939Z,14.82
2022-08-31T22:17:03.754Z,14.70
2022-08-31T22:19:35.911Z,14.65
2022-08-31T22:22:12.086Z,14.57
2022-08-31T22:24:40.964Z,14.52
2022-08-31T22:27:10.363Z,14.44
2022-08-31T22:29:39.977Z,14.40
2022-08-31T22:32:12.002Z,14.42
2022-08-31T22:34:40.993Z,14.43
2022-08-31T22:37:09.783Z,14.35
2022-08-31T22:39:37.205Z,14.28
2022-08-31T22:42:05.005Z,14.25
2022-08-31T22:44:34.485Z,14.23
2022-08-31T22:47:02.663Z,14.21
2022-08-31T22:49:29.983Z,14.17
2022-08-31T22:51:57.816Z,14.19
2022-08-31T22:54:25.275Z,14.19
2022-08-31T22:56:53.184Z,14.19
2022-08-31T22:59:26.146Z,14.14
2022-08-31T23:01:56.294Z,14.07
2022-08-31T23:04:27.049Z,14.02
2022-08-31T23:06:57.403Z,14.02
2022-08-31T23:09:27.809Z,14.00
2022-08-31T23:11:56.573Z,13.94
2022-08-31T23:14:24.023Z,13.89
2022-08-31T23:16:59.283Z,13.88
2022-08-31T23:19:30.956Z,13.79
2022-08-31T23:21:59.160Z,13.80
2022-08-31T23:24:37.214Z,13.82
2022-08-31T23:27:05.735Z,13.63
2022-08-31T23:29:40.251Z,13.56
2022-08-31T23:32:12.136Z,13.64
2022-08-31T23:34:40.167Z,13.65
2022-08-31T23:37:08.820Z,13.64
2022-08-31T23:39:41.146Z,13.52
2022-08-31T23:42:12.329Z,13.46
2022-08-31T23:44:44.280Z,13.46
2022-08-31T23:47:15.432Z,13.34
2022-08-31T23:49:44.029Z,13.32
2022-08-31T23:52:12.124Z,13.34
2022-08-31T23:54:40.444Z,13.30
2022-08-31T23:57:32.054Z,13.31
